Terminal Aerodrome Forecast
Issued by NWS

Home | Current Version | Previous Version | Text Only | Print | Product List | Glossary On
Versions: 1 2 3 4 5 6 7 8 9 10 11 12
856
FTUS46 KMFR 232320
TAFRBG
TAF
KRBG 232320Z 2400/2424 27010KT P6SM SCT025 OVC040
     FM240300 VRB03KT P6SM -RA SCT020 OVC040
     FM241100 18010KT P6SM -RA SCT015 OVC025 WS020/22040KT
     FM241700 23010KT P6SM -SHRA SCT015 OVC025=

USA.gov is the U.S. government's official web portal to all federal, state and local government web resources and services.